Terminal Aerodrome Forecast
Issued by NWS Huntsville, AL

Home | Current Version | Previous Version | Text Only | Print | Product List | Glossary On
Versions: 1 2 3 4 5 6 7 8 9 10 11 12 13 14 15 16 17 18 19 20 21 22 23 24 25 26 27 28 29 30 31 32
000
FTUS44 KHUN 261725
TAFHSV
TAF
KHSV 261725Z 2618/2718 20010KT P6SM BKN015 OVC040
      TEMPO 2618/2620 4SM BR BKN009
     FM262200 20010G15KT P6SM SCT009 SCT015 BKN040
      TEMPO 2622/2624 BKN025
     FM270000 VRB04KT P6SM SCT040 BKN250
     FM271000 17005KT P6SM SCT025 BKN040=

USA.gov is the U.S. government's official web portal to all federal, state and local government web resources and services.